Twin View Heights, Iowa
Current Conditions -  °F | °C
As of 4:52 PM on Thursday 23 Oct 2014 (Local Time) from KCID Reporting Station
Overcast Overcast  
Wind Chill: 59°   Ceiling: 1400
Heat Index: 59°   Visibility: 10mi
Dew Point: 53°   Wind: 5mph
Humidity: 81%   Direction: 260°W
Pressure: 30.02"   Gusts: NA
Location:  41.8165°N, 91.4837°W
Report Text: KCID 232152Z 26004KT 10SM OVC014 15/12 A3002 RMK AO2 SLP166 T01500117
Loading
Personal Weather Stations






























Interactive Weather Map
Tropical Storm Tracking
New forecast layout! Learn more

10-Day Weather Forecast

Advertisements
Track Severe Weather on mobile